sensor_id;sensor_type;location;lat;lon;timestamp;temperature;humidity
13416;DHT22;6779;50.150;8.680;2022-12-07T00:01:10;4.90;1.80
13416;DHT22;6779;50.150;8.680;2022-12-07T00:03:38;4.90;99.90
13416;DHT22;6779;50.150;8.680;2022-12-07T00:06:05;4.70;1.00
13416;DHT22;6779;50.150;8.680;2022-12-07T00:08:32;4.70;73.10
13416;DHT22;6779;50.150;8.680;2022-12-07T00:11:06;4.80;99.90
13416;DHT22;6779;50.150;8.680;2022-12-07T00:13:33;4.80;1.00
13416;DHT22;6779;50.150;8.680;2022-12-07T00:16:13;4.80;99.90
13416;DHT22;6779;50.150;8.680;2022-12-07T00:18:39;4.80;99.90
13416;DHT22;6779;50.150;8.680;2022-12-07T00:21:19;4.70;98.40
13416;DHT22;6779;50.150;8.680;2022-12-07T00:23:46;4.70;1.00
13416;DHT22;6779;50.150;8.680;2022-12-07T00:26:15;4.70;1.00
13416;DHT22;6779;50.150;8.680;2022-12-07T00:28:44;4.70;99.90
13416;DHT22;6779;50.150;8.680;2022-12-07T00:31:12;4.80;1.30
13416;DHT22;6779;50.150;8.680;2022-12-07T00:33:39;4.90;1.00
13416;DHT22;6779;50.150;8.680;2022-12-07T00:36:09;4.70;99.90
13416;DHT22;6779;50.150;8.680;2022-12-07T00:38:37;4.70;99.90
13416;DHT22;6779;50.150;8.680;2022-12-07T00:41:05;4.80;1.00
13416;DHT22;6779;50.150;8.680;2022-12-07T00:43:31;4.80;30.80
13416;DHT22;6779;50.150;8.680;2022-12-07T00:45:57;4.70;99.90
13416;DHT22;6779;50.150;8.680;2022-12-07T00:48:23;4.60;99.90
13416;DHT22;6779;50.150;8.680;2022-12-07T00:50:49;4.60;99.90
13416;DHT22;6779;50.150;8.680;2022-12-07T00:53:15;4.70;99.90
13416;DHT22;6779;50.150;8.680;2022-12-07T00:55:42;4.60;99.90
13416;DHT22;6779;50.150;8.680;2022-12-07T00:58:07;4.50;99.90
13416;DHT22;6779;50.150;8.680;2022-12-07T01:00:34;4.60;1.00
13416;DHT22;6779;50.150;8.680;2022-12-07T01:03:00;4.50;1.00
13416;DHT22;6779;50.150;8.680;2022-12-07T01:05:26;4.50;1.00
13416;DHT22;6779;50.150;8.680;2022-12-07T01:07:51;4.50;70.70
13416;DHT22;6779;50.150;8.680;2022-12-07T01:10:17;4.40;99.90
13416;DHT22;6779;50.150;8.680;2022-12-07T01:12:42;4.50;99.90
13416;DHT22;6779;50.150;8.680;2022-12-07T01:15:08;4.50;99.90
13416;DHT22;6779;50.150;8.680;2022-12-07T01:17:34;4.30;99.90
13416;DHT22;6779;50.150;8.680;2022-12-07T01:20:00;4.30;99.90
13416;DHT22;6779;50.150;8.680;2022-12-07T01:22:26;4.30;99.90
13416;DHT22;6779;50.150;8.680;2022-12-07T01:24:51;4.30;99.90
13416;DHT22;6779;50.150;8.680;2022-12-07T01:27:17;4.30;1.00
13416;DHT22;6779;50.150;8.680;2022-12-07T01:29:42;4.30;99.90
13416;DHT22;6779;50.150;8.680;2022-12-07T01:32:08;4.20;1.00
13416;DHT22;6779;50.150;8.680;2022-12-07T01:34:33;4.20;1.00
13416;DHT22;6779;50.150;8.680;2022-12-07T01:36:59;4.20;1.00
13416;DHT22;6779;50.150;8.680;2022-12-07T01:39:24;4.20;1.00
13416;DHT22;6779;50.150;8.680;2022-12-07T01:41:50;4.20;1.00
13416;DHT22;6779;50.150;8.680;2022-12-07T01:46:52;4.20;1.00
13416;DHT22;6779;50.150;8.680;2022-12-07T01:49:37;4.20;1.00
13416;DHT22;6779;50.150;8.680;2022-12-07T01:52:30;4.10;1.00
13416;DHT22;6779;50.150;8.680;2022-12-07T01:55:00;4.20;1.00
13416;DHT22;6779;50.150;8.680;2022-12-07T01:57:27;4.20;1.00
13416;DHT22;6779;50.150;8.680;2022-12-07T01:59:53;4.20;1.00
13416;DHT22;6779;50.150;8.680;2022-12-07T02:02:38;4.10;1.00
13416;DHT22;6779;50.150;8.680;2022-12-07T02:05:07;4.10;1.00
13416;DHT22;6779;50.150;8.680;2022-12-07T02:07:34;4.10;1.00
13416;DHT22;6779;50.150;8.680;2022-12-07T02:10:18;4.10;1.00
13416;DHT22;6779;50.150;8.680;2022-12-07T02:12:46;4.10;1.00
13416;DHT22;6779;50.150;8.680;2022-12-07T02:15:13;4.00;16.00
13416;DHT22;6779;50.150;8.680;2022-12-07T02:20:21;4.10;16.00
13416;DHT22;6779;50.150;8.680;2022-12-07T02:28:35;3.90;1.00
13416;DHT22;6779;50.150;8.680;2022-12-07T02:31:06;4.00;1.00
13416;DHT22;6779;50.150;8.680;2022-12-07T02:33:42;3.90;18.90
13416;DHT22;6779;50.150;8.680;2022-12-07T02:36:17;3.90;4.60
13416;DHT22;6779;50.150;8.680;2022-12-07T02:38:53;3.90;36.40
13416;DHT22;6779;50.150;8.680;2022-12-07T02:41:29;3.80;11.70
13416;DHT22;6779;50.150;8.680;2022-12-07T02:44:02;3.90;32.30
13416;DHT22;6779;50.150;8.680;2022-12-07T02:46:33;3.90;37.70
13416;DHT22;6779;50.150;8.680;2022-12-07T02:49:00;3.90;3.90
13416;DHT22;6779;50.150;8.680;2022-12-07T02:51:30;4.00;1.00
13416;DHT22;6779;50.150;8.680;2022-12-07T02:53:55;3.90;1.00
13416;DHT22;6779;50.150;8.680;2022-12-07T03:02:12;4.00;6.90
13416;DHT22;6779;50.150;8.680;2022-12-07T03:04:52;3.90;1.00
13416;DHT22;6779;50.150;8.680;2022-12-07T03:08:00;4.00;1.00
13416;DHT22;6779;50.150;8.680;2022-12-07T03:11:06;3.90;1.00
13416;DHT22;6779;50.150;8.680;2022-12-07T03:13:47;4.00;21.60
13416;DHT22;6779;50.150;8.680;2022-12-07T03:16:20;3.90;1.00
13416;DHT22;6779;50.150;8.680;2022-12-07T03:18:56;3.90;2.60
13416;DHT22;6779;50.150;8.680;2022-12-07T03:21:45;3.80;31.50
13416;DHT22;6779;50.150;8.680;2022-12-07T03:24:17;3.90;11.90
13416;DHT22;6779;50.150;8.680;2022-12-07T03:26:49;3.90;1.00
13416;DHT22;6779;50.150;8.680;2022-12-07T03:29:40;4.00;1.00
13416;DHT22;6779;50.150;8.680;2022-12-07T03:32:16;4.00;1.00
13416;DHT22;6779;50.150;8.680;2022-12-07T03:34:49;4.00;1.00
13416;DHT22;6779;50.150;8.680;2022-12-07T03:37:26;4.00;1.00
13416;DHT22;6779;50.150;8.680;2022-12-07T03:40:06;4.00;1.00
13416;DHT22;6779;50.150;8.680;2022-12-07T03:42:32;4.00;1.00
13416;DHT22;6779;50.150;8.680;2022-12-07T03:44:59;4.00;1.00
13416;DHT22;6779;50.150;8.680;2022-12-07T03:50:12;4.00;1.00
13416;DHT22;6779;50.150;8.680;2022-12-07T03:55:47;3.90;1.00
13416;DHT22;6779;50.150;8.680;2022-12-07T03:58:17;4.00;1.00
13416;DHT22;6779;50.150;8.680;2022-12-07T04:00:44;4.00;1.00
13416;DHT22;6779;50.150;8.680;2022-12-07T04:03:10;3.90;1.00
13416;DHT22;6779;50.150;8.680;2022-12-07T04:05:37;4.00;1.00
13416;DHT22;6779;50.150;8.680;2022-12-07T04:08:03;3.90;1.00
13416;DHT22;6779;50.150;8.680;2022-12-07T04:10:29;4.00;1.00
13416;DHT22;6779;50.150;8.680;2022-12-07T04:12:55;3.90;1.00
13416;DHT22;6779;50.150;8.680;2022-12-07T04:15:21;4.00;1.00
13416;DHT22;6779;50.150;8.680;2022-12-07T04:17:46;4.00;1.00
13416;DHT22;6779;50.150;8.680;2022-12-07T04:20:12;4.00;1.00
13416;DHT22;6779;50.150;8.680;2022-12-07T04:22:38;4.00;1.00
13416;DHT22;6779;50.150;8.680;2022-12-07T04:25:04;4.10;1.00
13416;DHT22;6779;50.150;8.680;2022-12-07T04:27:29;4.10;1.00
13416;DHT22;6779;50.150;8.680;2022-12-07T04:29:55;4.00;1.00
13416;DHT22;6779;50.150;8.680;2022-12-07T04:32:21;4.00;1.00
13416;DHT22;6779;50.150;8.680;2022-12-07T04:34:46;4.10;1.00
13416;DHT22;6779;50.150;8.680;2022-12-07T04:37:12;4.20;1.00
13416;DHT22;6779;50.150;8.680;2022-12-07T04:39:37;4.10;1.00
13416;DHT22;6779;50.150;8.680;2022-12-07T04:42:03;4.20;1.00
13416;DHT22;6779;50.150;8.680;2022-12-07T04:44:29;4.20;1.00
13416;DHT22;6779;50.150;8.680;2022-12-07T04:46:55;4.30;1.00
13416;DHT22;6779;50.150;8.680;2022-12-07T04:49:22;4.20;1.00
13416;DHT22;6779;50.150;8.680;2022-12-07T04:51:48;4.20;1.00
13416;DHT22;6779;50.150;8.680;2022-12-07T04:54:15;4.10;1.00
13416;DHT22;6779;50.150;8.680;2022-12-07T04:56:41;4.10;1.00
13416;DHT22;6779;50.150;8.680;2022-12-07T04:59:07;4.20;1.00
13416;DHT22;6779;50.150;8.680;2022-12-07T05:01:33;4.20;1.00
13416;DHT22;6779;50.150;8.680;2022-12-07T05:03:59;4.10;1.00
13416;DHT22;6779;50.150;8.680;2022-12-07T05:06:25;4.10;1.00
13416;DHT22;6779;50.150;8.680;2022-12-07T05:08:50;4.10;1.00
13416;DHT22;6779;50.150;8.680;2022-12-07T05:11:16;4.00;1.00
13416;DHT22;6779;50.150;8.680;2022-12-07T05:14:02;4.00;1.00
13416;DHT22;6779;50.150;8.680;2022-12-07T05:16:28;4.10;1.00
13416;DHT22;6779;50.150;8.680;2022-12-07T05:18:54;4.00;1.00
13416;DHT22;6779;50.150;8.680;2022-12-07T05:21:20;4.10;1.00
13416;DHT22;6779;50.150;8.680;2022-12-07T05:23:45;4.10;1.00
13416;DHT22;6779;50.150;8.680;2022-12-07T05:26:10;4.20;1.00
13416;DHT22;6779;50.150;8.680;2022-12-07T05:28:36;4.20;1.00
13416;DHT22;6779;50.150;8.680;2022-12-07T05:31:02;4.20;1.00
13416;DHT22;6779;50.150;8.680;2022-12-07T05:33:27;4.30;1.00
13416;DHT22;6779;50.150;8.680;2022-12-07T05:35:53;4.30;1.00
13416;DHT22;6779;50.150;8.680;2022-12-07T05:38:18;4.30;1.00
13416;DHT22;6779;50.150;8.680;2022-12-07T05:40:44;4.30;1.00
13416;DHT22;6779;50.150;8.680;2022-12-07T05:43:10;4.30;1.00
13416;DHT22;6779;50.150;8.680;2022-12-07T05:45:36;4.40;1.00
13416;DHT22;6779;50.150;8.680;2022-12-07T05:48:01;4.40;1.00
13416;DHT22;6779;50.150;8.680;2022-12-07T05:50:27;4.40;1.00
13416;DHT22;6779;50.150;8.680;2022-12-07T05:52:53;4.40;1.00
13416;DHT22;6779;50.150;8.680;2022-12-07T05:55:19;4.40;1.00
13416;DHT22;6779;50.150;8.680;2022-12-07T05:57:45;4.40;1.00
13416;DHT22;6779;50.150;8.680;2022-12-07T06:00:31;4.40;1.00
13416;DHT22;6779;50.150;8.680;2022-12-07T06:02:56;4.40;1.00
13416;DHT22;6779;50.150;8.680;2022-12-07T06:05:22;4.30;1.00
13416;DHT22;6779;50.150;8.680;2022-12-07T06:07:49;4.40;1.00
13416;DHT22;6779;50.150;8.680;2022-12-07T06:10:15;4.40;1.00
13416;DHT22;6779;50.150;8.680;2022-12-07T06:12:41;4.50;1.00
13416;DHT22;6779;50.150;8.680;2022-12-07T06:15:09;4.50;1.00
13416;DHT22;6779;50.150;8.680;2022-12-07T06:17:35;4.50;1.00
13416;DHT22;6779;50.150;8.680;2022-12-07T06:20:00;4.60;1.00
13416;DHT22;6779;50.150;8.680;2022-12-07T06:22:26;4.50;1.00
13416;DHT22;6779;50.150;8.680;2022-12-07T06:24:51;4.60;1.00
13416;DHT22;6779;50.150;8.680;2022-12-07T06:27:17;4.60;1.00
13416;DHT22;6779;50.150;8.680;2022-12-07T06:29:42;4.60;1.00
13416;DHT22;6779;50.150;8.680;2022-12-07T06:32:08;4.60;1.00
13416;DHT22;6779;50.150;8.680;2022-12-07T06:34:34;4.60;1.00
13416;DHT22;6779;50.150;8.680;2022-12-07T06:37:00;4.70;1.00
13416;DHT22;6779;50.150;8.680;2022-12-07T06:39:27;4.60;1.00
13416;DHT22;6779;50.150;8.680;2022-12-07T06:41:53;4.60;1.00
13416;DHT22;6779;50.150;8.680;2022-12-07T06:44:19;4.60;1.00
13416;DHT22;6779;50.150;8.680;2022-12-07T06:46:45;4.70;1.00
13416;DHT22;6779;50.150;8.680;2022-12-07T06:49:11;4.70;1.00
13416;DHT22;6779;50.150;8.680;2022-12-07T06:51:37;4.70;1.00
13416;DHT22;6779;50.150;8.680;2022-12-07T06:54:10;4.70;1.00
13416;DHT22;6779;50.150;8.680;2022-12-07T06:56:36;4.80;1.00
13416;DHT22;6779;50.150;8.680;2022-12-07T06:59:03;4.70;1.00
13416;DHT22;6779;50.150;8.680;2022-12-07T07:01:30;4.70;1.00
13416;DHT22;6779;50.150;8.680;2022-12-07T07:03:56;4.60;1.00
13416;DHT22;6779;50.150;8.680;2022-12-07T07:06:21;4.60;1.00
13416;DHT22;6779;50.150;8.680;2022-12-07T07:08:47;4.70;1.00
13416;DHT22;6779;50.150;8.680;2022-12-07T07:11:12;4.70;1.00
13416;DHT22;6779;50.150;8.680;2022-12-07T07:13:38;4.70;1.00
13416;DHT22;6779;50.150;8.680;2022-12-07T07:16:04;4.70;1.00
13416;DHT22;6779;50.150;8.680;2022-12-07T07:18:30;4.70;1.00
13416;DHT22;6779;50.150;8.680;2022-12-07T07:20:55;4.70;1.00
13416;DHT22;6779;50.150;8.680;2022-12-07T07:23:21;4.70;1.00
13416;DHT22;6779;50.150;8.680;2022-12-07T07:25:47;4.70;1.00
13416;DHT22;6779;50.150;8.680;2022-12-07T07:28:13;4.80;1.00
13416;DHT22;6779;50.150;8.680;2022-12-07T07:30:39;4.80;1.00
13416;DHT22;6779;50.150;8.680;2022-12-07T07:33:04;4.70;1.00
13416;DHT22;6779;50.150;8.680;2022-12-07T07:35:32;4.70;1.00
13416;DHT22;6779;50.150;8.680;2022-12-07T07:37:58;4.70;1.00
13416;DHT22;6779;50.150;8.680;2022-12-07T07:40:24;4.80;1.00
13416;DHT22;6779;50.150;8.680;2022-12-07T07:42:53;4.80;1.00
13416;DHT22;6779;50.150;8.680;2022-12-07T07:45:20;4.80;1.00
13416;DHT22;6779;50.150;8.680;2022-12-07T07:47:47;4.80;99.90
13416;DHT22;6779;50.150;8.680;2022-12-07T07:50:13;4.90;1.00
13416;DHT22;6779;50.150;8.680;2022-12-07T07:52:39;4.90;99.90
13416;DHT22;6779;50.150;8.680;2022-12-07T07:55:05;4.90;99.90
13416;DHT22;6779;50.150;8.680;2022-12-07T07:57:30;4.90;99.90
13416;DHT22;6779;50.150;8.680;2022-12-07T07:59:56;5.00;99.90
13416;DHT22;6779;50.150;8.680;2022-12-07T08:02:22;5.00;99.90
13416;DHT22;6779;50.150;8.680;2022-12-07T08:04:47;5.10;99.90
13416;DHT22;6779;50.150;8.680;2022-12-07T08:07:14;5.10;99.90
13416;DHT22;6779;50.150;8.680;2022-12-07T08:09:40;5.10;1.00
13416;DHT22;6779;50.150;8.680;2022-12-07T08:12:06;5.10;99.90
13416;DHT22;6779;50.150;8.680;2022-12-07T08:14:31;5.10;1.00
13416;DHT22;6779;50.150;8.680;2022-12-07T08:16:57;5.10;1.00
13416;DHT22;6779;50.150;8.680;2022-12-07T08:19:23;5.10;1.00
13416;DHT22;6779;50.150;8.680;2022-12-07T08:21:48;5.00;1.00
13416;DHT22;6779;50.150;8.680;2022-12-07T08:24:14;5.00;99.30
13416;DHT22;6779;50.150;8.680;2022-12-07T08:26:40;5.00;99.90
13416;DHT22;6779;50.150;8.680;2022-12-07T08:29:06;5.00;20.90
13416;DHT22;6779;50.150;8.680;2022-12-07T08:31:31;5.00;1.00
13416;DHT22;6779;50.150;8.680;2022-12-07T08:33:57;5.00;1.00
13416;DHT22;6779;50.150;8.680;2022-12-07T08:36:22;5.00;35.40
13416;DHT22;6779;50.150;8.680;2022-12-07T08:38:49;5.10;1.00
13416;DHT22;6779;50.150;8.680;2022-12-07T08:41:15;5.10;99.90
13416;DHT22;6779;50.150;8.680;2022-12-07T08:43:40;5.20;99.90
13416;DHT22;6779;50.150;8.680;2022-12-07T08:46:19;5.20;1.00
13416;DHT22;6779;50.150;8.680;2022-12-07T08:48:50;5.20;76.20
13416;DHT22;6779;50.150;8.680;2022-12-07T08:51:16;5.20;41.70
13416;DHT22;6779;50.150;8.680;2022-12-07T08:53:42;5.30;99.90
13416;DHT22;6779;50.150;8.680;2022-12-07T08:56:09;5.40;99.90
13416;DHT22;6779;50.150;8.680;2022-12-07T08:58:36;5.50;99.90
13416;DHT22;6779;50.150;8.680;2022-12-07T09:01:02;5.40;1.00
13416;DHT22;6779;50.150;8.680;2022-12-07T09:03:28;5.40;99.90
13416;DHT22;6779;50.150;8.680;2022-12-07T09:05:54;5.40;77.70
13416;DHT22;6779;50.150;8.680;2022-12-07T09:08:21;5.40;1.00
13416;DHT22;6779;50.150;8.680;2022-12-07T09:10:48;5.40;99.90
13416;DHT22;6779;50.150;8.680;2022-12-07T09:13:13;5.40;1.00
13416;DHT22;6779;50.150;8.680;2022-12-07T09:15:39;5.50;99.90
13416;DHT22;6779;50.150;8.680;2022-12-07T09:18:04;5.60;99.90
13416;DHT22;6779;50.150;8.680;2022-12-07T09:20:30;5.60;99.90
13416;DHT22;6779;50.150;8.680;2022-12-07T09:22:56;5.70;99.90
13416;DHT22;6779;50.150;8.680;2022-12-07T09:25:21;5.80;68.40
13416;DHT22;6779;50.150;8.680;2022-12-07T09:27:47;5.70;99.90
13416;DHT22;6779;50.150;8.680;2022-12-07T09:30:13;5.80;99.90
13416;DHT22;6779;50.150;8.680;2022-12-07T09:32:38;5.80;99.90
13416;DHT22;6779;50.150;8.680;2022-12-07T09:35:04;5.90;1.00
13416;DHT22;6779;50.150;8.680;2022-12-07T09:37:30;5.90;99.90
13416;DHT22;6779;50.150;8.680;2022-12-07T09:40:00;6.00;99.90
13416;DHT22;6779;50.150;8.680;2022-12-07T09:42:34;6.20;99.90
13416;DHT22;6779;50.150;8.680;2022-12-07T09:45:02;6.20;45.00
13416;DHT22;6779;50.150;8.680;2022-12-07T09:47:29;6.40;1.00
13416;DHT22;6779;50.150;8.680;2022-12-07T09:50:00;6.50;1.00
13416;DHT22;6779;50.150;8.680;2022-12-07T09:52:28;6.30;99.90
13416;DHT22;6779;50.150;8.680;2022-12-07T09:54:55;6.00;1.00
13416;DHT22;6779;50.150;8.680;2022-12-07T09:57:29;6.10;1.00
13416;DHT22;6779;50.150;8.680;2022-12-07T10:00:02;6.00;99.90
13416;DHT22;6779;50.150;8.680;2022-12-07T10:02:36;6.10;99.90
13416;DHT22;6779;50.150;8.680;2022-12-07T10:05:10;6.20;91.20
13416;DHT22;6779;50.150;8.680;2022-12-07T10:07:37;6.40;1.00
13416;DHT22;6779;50.150;8.680;2022-12-07T10:10:05;6.60;94.00
13416;DHT22;6779;50.150;8.680;2022-12-07T10:13:09;6.80;1.00
13416;DHT22;6779;50.150;8.680;2022-12-07T10:18:25;7.10;99.90
13416;DHT22;6779;50.150;8.680;2022-12-07T10:21:01;7.30;99.90
13416;DHT22;6779;50.150;8.680;2022-12-07T10:23:28;7.30;72.30
13416;DHT22;6779;50.150;8.680;2022-12-07T10:25:53;7.30;1.00
13416;DHT22;6779;50.150;8.680;2022-12-07T10:28:21;7.10;1.00
13416;DHT22;6779;50.150;8.680;2022-12-07T10:30:57;6.90;1.00
13416;DHT22;6779;50.150;8.680;2022-12-07T10:33:29;6.90;1.00
13416;DHT22;6779;50.150;8.680;2022-12-07T10:35:56;6.80;1.00
13416;DHT22;6779;50.150;8.680;2022-12-07T10:38:25;6.70;1.00
13416;DHT22;6779;50.150;8.680;2022-12-07T10:41:03;6.80;1.00
13416;DHT22;6779;50.150;8.680;2022-12-07T10:43:29;6.80;1.00
13416;DHT22;6779;50.150;8.680;2022-12-07T10:50:01;6.90;99.90
13416;DHT22;6779;50.150;8.680;2022-12-07T10:52:14;6.90;99.90
13416;DHT22;6779;50.150;8.680;2022-12-07T10:54:47;7.00;99.90
13416;DHT22;6779;50.150;8.680;2022-12-07T10:57:25;7.00;99.90
13416;DHT22;6779;50.150;8.680;2022-12-07T11:00:14;7.10;99.90
13416;DHT22;6779;50.150;8.680;2022-12-07T11:11:14;7.30;99.90
13416;DHT22;6779;50.150;8.680;2022-12-07T11:16:45;7.20;99.90
13416;DHT22;6779;50.150;8.680;2022-12-07T11:19:30;7.10;99.90
13416;DHT22;6779;50.150;8.680;2022-12-07T11:22:16;7.00;99.90
13416;DHT22;6779;50.150;8.680;2022-12-07T11:27:42;6.80;99.90
13416;DHT22;6779;50.150;8.680;2022-12-07T11:30:19;6.80;99.90
13416;DHT22;6779;50.150;8.680;2022-12-07T11:38:16;7.00;99.90
13416;DHT22;6779;50.150;8.680;2022-12-07T11:40:46;7.10;99.90
13416;DHT22;6779;50.150;8.680;2022-12-07T11:43:27;7.20;99.90
13416;DHT22;6779;50.150;8.680;2022-12-07T11:46:04;7.20;99.90
13416;DHT22;6779;50.150;8.680;2022-12-07T11:48:40;7.10;99.90
13416;DHT22;6779;50.150;8.680;2022-12-07T11:51:10;6.90;99.90
13416;DHT22;6779;50.150;8.680;2022-12-07T11:53:50;6.80;99.90
13416;DHT22;6779;50.150;8.680;2022-12-07T11:56:21;6.80;99.90
13416;DHT22;6779;50.150;8.680;2022-12-07T12:03:47;7.90;99.90
13416;DHT22;6779;50.150;8.680;2022-12-07T12:06:13;8.30;95.70
13416;DHT22;6779;50.150;8.680;2022-12-07T12:08:43;8.40;23.20
13416;DHT22;6779;50.150;8.680;2022-12-07T12:11:16;8.20;1.00
13416;DHT22;6779;50.150;8.680;2022-12-07T12:13:55;8.00;3.40
13416;DHT22;6779;50.150;8.680;2022-12-07T12:19:38;7.40;35.00
13416;DHT22;6779;50.150;8.680;2022-12-07T12:22:18;7.20;50.90
13416;DHT22;6779;50.150;8.680;2022-12-07T12:24:48;7.30;95.50
13416;DHT22;6779;50.150;8.680;2022-12-07T12:27:29;7.30;84.00
13416;DHT22;6779;50.150;8.680;2022-12-07T12:29:58;7.40;64.50
13416;DHT22;6779;50.150;8.680;2022-12-07T12:32:42;7.40;47.00
13416;DHT22;6779;50.150;8.680;2022-12-07T12:37:53;7.50;95.70
13416;DHT22;6779;50.150;8.680;2022-12-07T12:42:54;7.60;92.50
13416;DHT22;6779;50.150;8.680;2022-12-07T12:45:30;7.50;66.00
13416;DHT22;6779;50.150;8.680;2022-12-07T12:48:00;7.40;99.90
13416;DHT22;6779;50.150;8.680;2022-12-07T12:50:35;7.40;99.90
13416;DHT22;6779;50.150;8.680;2022-12-07T12:53:20;7.30;99.90
13416;DHT22;6779;50.150;8.680;2022-12-07T12:58:36;7.30;99.90
13416;DHT22;6779;50.150;8.680;2022-12-07T13:03:56;7.00;99.90
13416;DHT22;6779;50.150;8.680;2022-12-07T13:08:56;6.60;99.90
13416;DHT22;6779;50.150;8.680;2022-12-07T13:11:40;6.40;24.30
13416;DHT22;6779;50.150;8.680;2022-12-07T13:20:03;6.20;99.90
13416;DHT22;6779;50.150;8.680;2022-12-07T13:25:23;6.30;96.90
13416;DHT22;6779;50.150;8.680;2022-12-07T13:30:46;6.50;99.90
13416;DHT22;6779;50.150;8.680;2022-12-07T13:33:12;6.60;92.80
13416;DHT22;6779;50.150;8.680;2022-12-07T13:35:39;6.60;1.00
13416;DHT22;6779;50.150;8.680;2022-12-07T13:38:13;6.60;1.00
13416;DHT22;6779;50.150;8.680;2022-12-07T13:40:40;6.60;1.00
13416;DHT22;6779;50.150;8.680;2022-12-07T13:43:14;6.70;99.90
13416;DHT22;6779;50.150;8.680;2022-12-07T13:45:41;6.80;1.00
13416;DHT22;6779;50.150;8.680;2022-12-07T13:48:29;6.90;99.90
13416;DHT22;6779;50.150;8.680;2022-12-07T13:50:57;6.80;1.00
13416;DHT22;6779;50.150;8.680;2022-12-07T13:53:24;6.70;99.90
13416;DHT22;6779;50.150;8.680;2022-12-07T13:55:50;6.80;8.10
13416;DHT22;6779;50.150;8.680;2022-12-07T13:58:16;6.70;1.00
13416;DHT22;6779;50.150;8.680;2022-12-07T14:00:42;6.70;1.00
13416;DHT22;6779;50.150;8.680;2022-12-07T14:05:37;6.70;1.00
13416;DHT22;6779;50.150;8.680;2022-12-07T14:08:04;6.60;42.00
13416;DHT22;6779;50.150;8.680;2022-12-07T14:12:56;6.40;99.90
13416;DHT22;6779;50.150;8.680;2022-12-07T14:15:28;6.30;1.00
13416;DHT22;6779;50.150;8.680;2022-12-07T14:17:55;6.30;1.00
13416;DHT22;6779;50.150;8.680;2022-12-07T14:20:37;6.30;1.00
13416;DHT22;6779;50.150;8.680;2022-12-07T14:23:04;6.30;1.00
13416;DHT22;6779;50.150;8.680;2022-12-07T14:25:46;6.20;99.90
13416;DHT22;6779;50.150;8.680;2022-12-07T14:28:32;6.30;1.00
13416;DHT22;6779;50.150;8.680;2022-12-07T14:30:58;6.30;99.90
13416;DHT22;6779;50.150;8.680;2022-12-07T14:33:24;6.30;69.40
13416;DHT22;6779;50.150;8.680;2022-12-07T14:35:50;6.40;99.90
13416;DHT22;6779;50.150;8.680;2022-12-07T14:38:20;6.30;99.90
13416;DHT22;6779;50.150;8.680;2022-12-07T14:40:46;6.40;29.70
13416;DHT22;6779;50.150;8.680;2022-12-07T14:43:12;6.30;4.40
13416;DHT22;6779;50.150;8.680;2022-12-07T14:45:39;6.20;1.00
13416;DHT22;6779;50.150;8.680;2022-12-07T14:48:07;6.20;1.00
13416;DHT22;6779;50.150;8.680;2022-12-07T14:50:37;6.20;1.00
13416;DHT22;6779;50.150;8.680;2022-12-07T14:53:11;6.00;37.40
13416;DHT22;6779;50.150;8.680;2022-12-07T14:55:38;6.10;36.20
13416;DHT22;6779;50.150;8.680;2022-12-07T14:58:03;6.00;99.90
13416;DHT22;6779;50.150;8.680;2022-12-07T15:00:29;6.00;99.90
13416;DHT22;6779;50.150;8.680;2022-12-07T15:02:55;5.90;1.00
13416;DHT22;6779;50.150;8.680;2022-12-07T15:05:21;5.90;1.00
13416;DHT22;6779;50.150;8.680;2022-12-07T15:07:48;5.80;99.90
13416;DHT22;6779;50.150;8.680;2022-12-07T15:10:24;5.70;22.00
13416;DHT22;6779;50.150;8.680;2022-12-07T15:13:01;5.70;21.70
13416;DHT22;6779;50.150;8.680;2022-12-07T15:15:50;5.60;1.00
13416;DHT22;6779;50.150;8.680;2022-12-07T15:18:17;5.60;1.00
13416;DHT22;6779;50.150;8.680;2022-12-07T15:20:43;5.60;99.90
13416;DHT22;6779;50.150;8.680;2022-12-07T15:23:09;5.60;1.00
13416;DHT22;6779;50.150;8.680;2022-12-07T15:25:35;5.60;99.90
13416;DHT22;6779;50.150;8.680;2022-12-07T15:28:01;5.60;1.00
13416;DHT22;6779;50.150;8.680;2022-12-07T15:30:27;5.60;99.90
13416;DHT22;6779;50.150;8.680;2022-12-07T15:32:53;5.60;99.90
13416;DHT22;6779;50.150;8.680;2022-12-07T15:35:19;5.50;10.00
13416;DHT22;6779;50.150;8.680;2022-12-07T15:37:45;5.60;99.90
13416;DHT22;6779;50.150;8.680;2022-12-07T15:40:11;5.50;92.90
13416;DHT22;6779;50.150;8.680;2022-12-07T15:42:37;5.50;99.90
13416;DHT22;6779;50.150;8.680;2022-12-07T15:45:04;5.50;1.00
13416;DHT22;6779;50.150;8.680;2022-12-07T15:47:31;5.60;99.90
13416;DHT22;6779;50.150;8.680;2022-12-07T15:49:57;5.50;99.90
13416;DHT22;6779;50.150;8.680;2022-12-07T15:52:23;5.50;1.00
13416;DHT22;6779;50.150;8.680;2022-12-07T15:54:48;5.50;1.00
13416;DHT22;6779;50.150;8.680;2022-12-07T15:57:14;5.50;99.90
13416;DHT22;6779;50.150;8.680;2022-12-07T15:59:40;5.60;1.00
13416;DHT22;6779;50.150;8.680;2022-12-07T16:02:05;5.50;86.80
13416;DHT22;6779;50.150;8.680;2022-12-07T16:04:31;5.50;99.90
13416;DHT22;6779;50.150;8.680;2022-12-07T16:06:57;5.50;13.00
13416;DHT22;6779;50.150;8.680;2022-12-07T16:09:22;5.60;1.00
13416;DHT22;6779;50.150;8.680;2022-12-07T16:11:48;5.60;99.90
13416;DHT22;6779;50.150;8.680;2022-12-07T16:14:15;5.60;1.00
13416;DHT22;6779;50.150;8.680;2022-12-07T16:16:41;5.50;99.90
13416;DHT22;6779;50.150;8.680;2022-12-07T16:19:07;5.50;99.90
13416;DHT22;6779;50.150;8.680;2022-12-07T16:21:34;5.50;1.00
13416;DHT22;6779;50.150;8.680;2022-12-07T16:24:01;5.50;99.90
13416;DHT22;6779;50.150;8.680;2022-12-07T16:26:26;5.50;99.90
13416;DHT22;6779;50.150;8.680;2022-12-07T16:28:53;5.40;1.00
13416;DHT22;6779;50.150;8.680;2022-12-07T16:31:22;5.50;1.00
13416;DHT22;6779;50.150;8.680;2022-12-07T16:33:48;5.50;1.00
13416;DHT22;6779;50.150;8.680;2022-12-07T16:36:15;5.50;99.90
13416;DHT22;6779;50.150;8.680;2022-12-07T16:38:42;5.50;20.70
13416;DHT22;6779;50.150;8.680;2022-12-07T16:41:08;5.50;99.90
13416;DHT22;6779;50.150;8.680;2022-12-07T16:43:35;5.50;1.00
13416;DHT22;6779;50.150;8.680;2022-12-07T16:46:01;5.60;99.90
13416;DHT22;6779;50.150;8.680;2022-12-07T16:48:26;5.60;99.90
13416;DHT22;6779;50.150;8.680;2022-12-07T16:50:52;5.50;1.00
13416;DHT22;6779;50.150;8.680;2022-12-07T16:53:20;5.50;99.90
13416;DHT22;6779;50.150;8.680;2022-12-07T16:55:49;5.40;99.90
13416;DHT22;6779;50.150;8.680;2022-12-07T16:58:16;5.50;1.00
13416;DHT22;6779;50.150;8.680;2022-12-07T17:00:43;5.40;99.90
13416;DHT22;6779;50.150;8.680;2022-12-07T17:03:08;5.40;99.90
13416;DHT22;6779;50.150;8.680;2022-12-07T17:05:38;5.40;99.90
13416;DHT22;6779;50.150;8.680;2022-12-07T17:08:04;5.50;1.00
13416;DHT22;6779;50.150;8.680;2022-12-07T17:10:30;5.40;1.00
13416;DHT22;6779;50.150;8.680;2022-12-07T17:12:57;5.40;99.90
13416;DHT22;6779;50.150;8.680;2022-12-07T17:15:23;5.30;1.00
13416;DHT22;6779;50.150;8.680;2022-12-07T17:17:53;5.30;1.00
13416;DHT22;6779;50.150;8.680;2022-12-07T17:20:20;5.40;1.00
13416;DHT22;6779;50.150;8.680;2022-12-07T17:22:46;5.40;17.90
13416;DHT22;6779;50.150;8.680;2022-12-07T17:25:12;5.40;1.00
13416;DHT22;6779;50.150;8.680;2022-12-07T17:27:37;5.30;1.00
13416;DHT22;6779;50.150;8.680;2022-12-07T17:30:04;5.30;1.00
13416;DHT22;6779;50.150;8.680;2022-12-07T17:32:30;5.30;1.00
13416;DHT22;6779;50.150;8.680;2022-12-07T17:34:56;5.30;99.90
13416;DHT22;6779;50.150;8.680;2022-12-07T17:37:21;5.30;99.90
13416;DHT22;6779;50.150;8.680;2022-12-07T17:39:47;5.20;99.90
13416;DHT22;6779;50.150;8.680;2022-12-07T17:42:12;5.10;1.00
13416;DHT22;6779;50.150;8.680;2022-12-07T17:44:56;5.00;1.00
13416;DHT22;6779;50.150;8.680;2022-12-07T17:47:22;5.10;1.00